createdAt,value
2022-09-22T00:01:08.190Z,101652.97
2022-09-22T00:03:43.023Z,101648.34
2022-09-22T00:06:11.119Z,101644.22
2022-09-22T00:08:40.256Z,101649.06
2022-09-22T00:11:13.684Z,101647.59
2022-09-22T00:13:41.152Z,101645.03
2022-09-22T00:16:09.622Z,101648.59
2022-09-22T00:18:36.388Z,101652.78
2022-09-22T00:21:09.244Z,101648.66
2022-09-22T00:23:36.956Z,101647.41
2022-09-22T00:26:12.271Z,101644.06
2022-09-22T00:28:41.491Z,101642.66
2022-09-22T00:31:11.462Z,101645.09
2022-09-22T00:33:39.266Z,101643.38
2022-09-22T00:36:06.185Z,101643.56
2022-09-22T00:38:33.540Z,101646.28
2022-09-22T00:41:01.470Z,101635.47
2022-09-22T00:43:30.793Z,101637.16
2022-09-22T00:46:29.686Z,101643.31
2022-09-22T00:49:01.962Z,101637.81
2022-09-22T00:51:34.283Z,101640.75
2022-09-22T00:54:04.384Z,101632.94
2022-09-22T00:56:55.189Z,101633.59
2022-09-22T00:59:24.860Z,101637.06
2022-09-22T01:01:51.954Z,101630.03
2022-09-22T01:04:19.072Z,101635.53
2022-09-22T01:06:46.036Z,101628.94
2022-09-22T01:09:13.339Z,101626.34
2022-09-22T01:11:41.407Z,101625.31
2022-09-22T01:14:13.935Z,101618.78
2022-09-22T01:17:14.785Z,101622.72
2022-09-22T01:20:12.170Z,101613.81
2022-09-22T01:22:57.043Z,101613.47
2022-09-22T01:25:39.098Z,101606.03
2022-09-22T01:28:20.892Z,101605.13
2022-09-22T01:31:15.424Z,101607.53
2022-09-22T01:33:53.860Z,101598.09
2022-09-22T01:36:29.865Z,101600.13
2022-09-22T01:39:20.937Z,101609.44
2022-09-22T01:42:05.825Z,101599.94
2022-09-22T01:45:01.546Z,101608.19
2022-09-22T01:47:40.478Z,101595.06
2022-09-22T01:50:18.266Z,101594.56
2022-09-22T01:52:45.200Z,101595.59
2022-09-22T01:55:38.503Z,101588.69
2022-09-22T01:58:24.064Z,101574.78
2022-09-22T02:00:59.360Z,101578.72
2022-09-22T02:03:38.982Z,101581.56
2022-09-22T02:06:31.635Z,101590.34
2022-09-22T02:09:06.916Z,101575.56
2022-09-22T02:11:34.024Z,101578.81
2022-09-22T02:14:02.519Z,101576.91
2022-09-22T02:16:29.521Z,101570.53
2022-09-22T02:19:13.387Z,101581.19
2022-09-22T02:21:43.646Z,101571.19
2022-09-22T02:24:34.858Z,101570.50
2022-09-22T02:27:35.651Z,101577.06
2022-09-22T02:30:08.095Z,101565.72
2022-09-22T02:32:37.432Z,101566.41
2022-09-22T02:35:04.825Z,101568.44
2022-09-22T02:38:02.313Z,101570.84
2022-09-22T02:41:00.317Z,101566.75
2022-09-22T02:44:08.523Z,101564.66
2022-09-22T02:46:45.969Z,101562.94
2022-09-22T02:49:18.018Z,101564.88
2022-09-22T02:51:48.018Z,101562.50
2022-09-22T02:54:17.321Z,101564.03
2022-09-22T02:56:44.062Z,101557.34
2022-09-22T02:59:11.140Z,101552.66
2022-09-22T03:01:38.171Z,101567.78
2022-09-22T03:04:05.674Z,101553.50
2022-09-22T03:06:32.646Z,101558.69
2022-09-22T03:08:59.326Z,101558.34
2022-09-22T03:11:27.082Z,101559.88
2022-09-22T03:13:54.594Z,101557.81
2022-09-22T03:16:21.319Z,101552.63
2022-09-22T03:18:47.999Z,101544.06
2022-09-22T03:21:14.522Z,101539.91
2022-09-22T03:23:41.156Z,101545.78
2022-09-22T03:26:07.641Z,101550.41
2022-09-22T03:28:34.245Z,101546.44
2022-09-22T03:31:00.896Z,101542.00
2022-09-22T03:33:27.513Z,101545.09
2022-09-22T03:35:54.064Z,101531.66
2022-09-22T03:38:20.547Z,101539.41
2022-09-22T03:40:51.188Z,101530.50
2022-09-22T03:43:17.843Z,101534.59
2022-09-22T03:45:44.794Z,101531.00
2022-09-22T03:48:11.575Z,101533.75
2022-09-22T03:50:38.040Z,101535.81
2022-09-22T03:53:04.586Z,101528.59
2022-09-22T03:55:31.112Z,101529.44
2022-09-22T03:57:57.626Z,101526.19
2022-09-22T04:00:24.110Z,101523.94
2022-09-22T04:02:50.652Z,101523.13
2022-09-22T04:05:17.279Z,101528.25
2022-09-22T04:07:44.412Z,101522.75
2022-09-22T04:10:10.978Z,101514.50
2022-09-22T04:12:37.558Z,101512.47
2022-09-22T04:15:04.777Z,101520.69
2022-09-22T04:17:31.307Z,101515.50
2022-09-22T04:19:57.908Z,101514.69
2022-09-22T04:22:24.728Z,101509.00
2022-09-22T04:24:51.207Z,101510.19
2022-09-22T04:27:20.568Z,101511.41
2022-09-22T04:29:48.283Z,101521.38
2022-09-22T04:32:15.803Z,101514.69
2022-09-22T04:34:43.042Z,101514.69
2022-09-22T04:37:10.592Z,101520.03
2022-09-22T04:39:37.430Z,101516.38
2022-09-22T04:42:04.361Z,101512.78
2022-09-22T04:44:34.753Z,101512.41
2022-09-22T04:47:01.952Z,101518.94
2022-09-22T04:49:28.437Z,101519.50
2022-09-22T04:51:55.140Z,101516.22
2022-09-22T04:54:21.636Z,101519.25
2022-09-22T04:56:48.195Z,101525.50
2022-09-22T04:59:14.722Z,101520.50
2022-09-22T05:01:41.517Z,101523.78
2022-09-22T05:04:08.113Z,101526.19
2022-09-22T05:06:34.718Z,101526.53
2022-09-22T05:09:03.076Z,101524.31
2022-09-22T05:11:30.135Z,101517.25
2022-09-22T05:13:58.520Z,101519.31
2022-09-22T05:16:26.385Z,101519.66
2022-09-22T05:18:53.669Z,101528.59
2022-09-22T05:21:20.242Z,101521.06
2022-09-22T05:23:46.790Z,101522.75
2022-09-22T05:26:13.771Z,101526.19
2022-09-22T05:28:40.821Z,101516.41
2022-09-22T05:31:07.810Z,101529.13
2022-09-22T05:33:34.618Z,101523.97
2022-09-22T05:36:01.380Z,101520.34
2022-09-22T05:38:28.798Z,101535.81
2022-09-22T05:40:55.380Z,101526.53
2022-09-22T05:43:21.874Z,101528.59
2022-09-22T05:45:48.519Z,101524.47
2022-09-22T05:48:15.074Z,101525.34
2022-09-22T05:50:43.765Z,101525.50
2022-09-22T05:53:10.585Z,101529.31
2022-09-22T05:55:39.022Z,101523.28
2022-09-22T05:58:05.959Z,101527.59
2022-09-22T06:00:32.773Z,101519.31
2022-09-22T06:02:59.436Z,101527.59
2022-09-22T06:05:26.583Z,101532.03
2022-09-22T06:08:03.385Z,101532.06
2022-09-22T06:10:31.830Z,101534.28
2022-09-22T06:13:00.431Z,101529.63
2022-09-22T06:15:28.518Z,101536.69
2022-09-22T06:17:56.310Z,101539.44
2022-09-22T06:20:23.441Z,101532.03
2022-09-22T06:22:49.945Z,101542.38
2022-09-22T06:25:16.610Z,101533.44
2022-09-22T06:27:43.968Z,101529.31
2022-09-22T06:30:11.788Z,101534.81
2022-09-22T06:32:43.728Z,101535.31
2022-09-22T06:35:10.839Z,101531.53
2022-09-22T06:37:38.436Z,101532.22
2022-09-22T06:40:08.199Z,101543.91
2022-09-22T06:42:35.555Z,101538.75
2022-09-22T06:45:04.404Z,101543.03
2022-09-22T06:47:32.383Z,101539.22
2022-09-22T06:49:58.888Z,101545.59
2022-09-22T06:52:27.086Z,101529.53
2022-09-22T06:54:56.331Z,101538.66
2022-09-22T06:57:22.938Z,101539.31
2022-09-22T06:59:49.633Z,101535.34
2022-09-22T07:02:16.397Z,101533.94
2022-09-22T07:04:43.081Z,101535.84
2022-09-22T07:07:09.900Z,101541.13
2022-09-22T07:09:36.596Z,101546.59
2022-09-22T07:12:03.200Z,101540.91
2022-09-22T07:14:29.891Z,101543.09
2022-09-22T07:16:56.647Z,101538.25
2022-09-22T07:19:23.226Z,101536.16
2022-09-22T07:21:49.729Z,101546.47
2022-09-22T07:24:16.493Z,101542.38
2022-09-22T07:26:43.840Z,101530.25
2022-09-22T07:29:13.322Z,101540.19
2022-09-22T07:31:41.350Z,101534.63
2022-09-22T07:34:07.965Z,101540.41
2022-09-22T07:36:34.678Z,101542.63
2022-09-22T07:39:07.625Z,101539.97
2022-09-22T07:41:44.271Z,101539.41
2022-09-22T07:44:32.453Z,101536.94
2022-09-22T07:46:59.614Z,101543.22
2022-09-22T07:49:26.875Z,101541.34
2022-09-22T07:51:57.372Z,101542.63
2022-09-22T07:54:25.615Z,101546.72
2022-09-22T07:56:57.982Z,101541.13
2022-09-22T07:59:25.092Z,101542.00
2022-09-22T08:01:52.253Z,101542.94
2022-09-22T08:04:22.647Z,101540.81
2022-09-22T08:06:52.958Z,101538.47
2022-09-22T08:09:19.840Z,101533.09
2022-09-22T08:11:48.493Z,101535.50
2022-09-22T08:14:21.468Z,101532.25
2022-09-22T08:16:51.391Z,101534.63
2022-09-22T08:19:18.349Z,101532.34
2022-09-22T08:21:51.996Z,101531.66
2022-09-22T08:24:23.508Z,101533.66
2022-09-22T08:26:52.571Z,101521.91
2022-09-22T08:29:19.367Z,101527.72
2022-09-22T08:31:47.325Z,101537.16
2022-09-22T08:34:16.220Z,101533.72
2022-09-22T08:36:49.114Z,101535.31
2022-09-22T08:39:17.562Z,101534.31
2022-09-22T08:42:08.125Z,101527.16
2022-09-22T08:44:42.092Z,101539.22
2022-09-22T08:47:16.629Z,101528.22
2022-09-22T08:50:08.867Z,101530.38
2022-09-22T08:52:47.628Z,101532.28
2022-09-22T08:55:20.933Z,101526.22
2022-09-22T08:58:03.282Z,101533.72
2022-09-22T09:00:42.638Z,101530.31
2022-09-22T09:03:31.505Z,101530.16
2022-09-22T09:06:04.448Z,101527.56
2022-09-22T09:08:54.768Z,101523.56
2022-09-22T09:11:40.780Z,101530.59
2022-09-22T09:14:16.243Z,101517.94
2022-09-22T09:16:46.692Z,101525.72
2022-09-22T09:19:25.859Z,101519.03
2022-09-22T09:22:00.184Z,101516.78
2022-09-22T09:27:21.628Z,101514.88
2022-09-22T09:29:58.926Z,101514.81
2022-09-22T09:32:36.156Z,101505.38
2022-09-22T09:37:36.900Z,101515.06
2022-09-22T09:40:06.873Z,101508.94
2022-09-22T09:42:36.700Z,101504.94
2022-09-22T09:45:04.010Z,101504.00
2022-09-22T09:47:59.115Z,101496.44
2022-09-22T09:50:31.870Z,101503.41
2022-09-22T09:52:59.857Z,101497.84
2022-09-22T09:55:27.570Z,101496.84
2022-09-22T09:58:32.190Z,101495.25
2022-09-22T10:01:00.409Z,101488.81
2022-09-22T10:03:30.245Z,101487.81
2022-09-22T10:06:06.149Z,101488.63
2022-09-22T10:08:41.569Z,101484.22
2022-09-22T10:11:10.295Z,101480.31
2022-09-22T10:13:39.086Z,101476.97
2022-09-22T10:16:06.140Z,101477.78
2022-09-22T10:18:39.254Z,101472.56
2022-09-22T10:21:16.444Z,101471.63
2022-09-22T10:23:46.592Z,101465.81
2022-09-22T10:26:20.627Z,101466.47
2022-09-22T10:29:12.421Z,101450.34
2022-09-22T10:31:40.614Z,101460.22
2022-09-22T10:34:35.635Z,101452.06
2022-09-22T10:37:10.391Z,101450.75
2022-09-22T10:39:43.030Z,101444.72
2022-09-22T10:42:35.411Z,101450.91
2022-09-22T10:45:11.659Z,101448.81
2022-09-22T10:48:17.019Z,101446.28
2022-09-22T10:50:56.036Z,101447.44
2022-09-22T10:53:45.686Z,101446.66
2022-09-22T10:56:33.938Z,101445.75
2022-09-22T10:59:12.862Z,101441.09
2022-09-22T11:01:48.773Z,101440.16
2022-09-22T11:04:25.444Z,101443.06
2022-09-22T11:07:44.307Z,101443.56
2022-09-22T11:11:14.461Z,101436.84
2022-09-22T11:13:59.440Z,101434.84
2022-09-22T11:16:55.304Z,101430.84
2022-09-22T11:19:31.135Z,101434.34
2022-09-22T11:22:30.076Z,101434.00
2022-09-22T11:25:22.348Z,101428.03
2022-09-22T11:28:04.298Z,101424.97
2022-09-22T11:30:40.095Z,101421.91
2022-09-22T11:33:09.909Z,101427.91
2022-09-22T11:35:42.885Z,101419.41
2022-09-22T11:38:19.075Z,101413.22
2022-09-22T11:41:17.726Z,101405.53
2022-09-22T11:44:02.103Z,101413.53
2022-09-22T11:47:04.850Z,101408.22
2022-09-22T11:49:50.078Z,101403.13
2022-09-22T11:52:22.575Z,101396.59
2022-09-22T11:55:16.793Z,101392.34
2022-09-22T11:57:51.014Z,101401.41
2022-09-22T12:00:20.993Z,101395.69
2022-09-22T12:02:54.962Z,101384.94
2022-09-22T12:05:41.499Z,101376.72
2022-09-22T12:08:37.127Z,101370.41
2022-09-22T12:11:07.977Z,101374.66
2022-09-22T12:13:37.031Z,101364.13
2022-09-22T12:16:42.263Z,101368.94
2022-09-22T12:19:34.654Z,101367.69
2022-09-22T12:22:46.003Z,101361.34
2022-09-22T12:25:21.157Z,101363.34
2022-09-22T12:28:01.322Z,101353.97
2022-09-22T12:30:27.909Z,101355.00
2022-09-22T12:32:54.509Z,101344.06
2022-09-22T12:35:31.044Z,101345.22
2022-09-22T12:38:02.142Z,101344.91
2022-09-22T12:40:41.465Z,101337.72
2022-09-22T12:43:19.074Z,101331.00
2022-09-22T12:45:47.131Z,101329.13
2022-09-22T12:48:22.611Z,101323.41
2022-09-22T12:50:49.742Z,101331.09
2022-09-22T12:53:22.221Z,101317.38
2022-09-22T12:55:54.122Z,101322.03
2022-09-22T12:58:20.735Z,101321.69
2022-09-22T13:00:49.548Z,101318.53
2022-09-22T13:03:25.465Z,101313.81
2022-09-22T13:05:53.206Z,101315.06
2022-09-22T13:08:24.638Z,101306.91
2022-09-22T13:11:02.791Z,101313.63
2022-09-22T13:13:29.236Z,101303.34
2022-09-22T13:15:59.409Z,101307.44
2022-09-22T13:18:39.854Z,101302.91
2022-09-22T13:21:12.146Z,101296.88
2022-09-22T13:24:00.140Z,101306.91
2022-09-22T13:26:33.386Z,101304.66
2022-09-22T13:29:03.616Z,101300.56
2022-09-22T13:31:43.702Z,101298.94
2022-09-22T13:34:20.809Z,101299.66
2022-09-22T13:36:48.785Z,101289.34
2022-09-22T13:39:19.588Z,101287.66
2022-09-22T13:41:51.075Z,101280.00
2022-09-22T13:44:25.034Z,101276.66
2022-09-22T13:46:52.591Z,101270.69
2022-09-22T13:49:29.299Z,101271.31
2022-09-22T13:51:59.280Z,101264.66
2022-09-22T13:54:29.310Z,101259.47
2022-09-22T13:56:57.453Z,101263.94
2022-09-22T13:59:27.322Z,101260.91
2022-09-22T14:01:54.805Z,101260.22
2022-09-22T14:04:27.338Z,101258.59
2022-09-22T14:06:59.081Z,101260.44
2022-09-22T14:09:26.535Z,101257.66
2022-09-22T14:11:54.861Z,101252.16
2022-09-22T14:14:27.041Z,101248.59
2022-09-22T14:17:20.635Z,101251.25
2022-09-22T14:20:09.401Z,101250.53
2022-09-22T14:22:42.881Z,101242.41
2022-09-22T14:25:21.004Z,101235.91
2022-09-22T14:27:55.431Z,101240.09
2022-09-22T14:30:30.150Z,101231.50
2022-09-22T14:33:03.136Z,101236.41
2022-09-22T14:35:32.151Z,101233.78
2022-09-22T14:38:10.464Z,101226.09
2022-09-22T14:40:50.694Z,101235.31
2022-09-22T14:43:24.726Z,101224.56
2022-09-22T14:46:08.690Z,101228.00
2022-09-22T14:48:36.493Z,101222.91
2022-09-22T14:51:17.195Z,101221.81
2022-09-22T14:53:48.565Z,101220.00
2022-09-22T14:56:22.946Z,101219.28
2022-09-22T14:58:52.292Z,101214.34
2022-09-22T15:01:40.797Z,101209.69
2022-09-22T15:04:22.146Z,101209.69
2022-09-22T15:06:51.483Z,101199.44
2022-09-22T15:09:31.780Z,101203.56
2022-09-22T15:12:02.045Z,101206.00
2022-09-22T15:14:41.263Z,101202.59
2022-09-22T15:17:54.515Z,101201.28
2022-09-22T15:20:24.782Z,101204.44
2022-09-22T15:22:53.837Z,101199.25
2022-09-22T15:25:21.206Z,101195.28
2022-09-22T15:27:49.754Z,101192.22
2022-09-22T15:30:17.005Z,101183.47
2022-09-22T15:32:46.345Z,101185.19
2022-09-22T15:35:13.738Z,101186.53
2022-09-22T15:37:42.046Z,101190.06
2022-09-22T15:40:21.404Z,101178.03
2022-09-22T15:43:09.094Z,101178.66
2022-09-22T15:45:37.656Z,101175.25
2022-09-22T15:48:04.646Z,101171.84
2022-09-22T15:50:31.282Z,101171.34
2022-09-22T15:52:58.752Z,101161.75
2022-09-22T15:55:25.406Z,101164.44
2022-09-22T15:57:55.205Z,101167.22
2022-09-22T16:00:27.474Z,101168.47
2022-09-22T16:02:54.578Z,101167.97
2022-09-22T16:05:21.228Z,101164.66
2022-09-22T16:07:51.591Z,101159.69
2022-09-22T16:10:23.389Z,101158.00
2022-09-22T16:12:51.124Z,101148.97
2022-09-22T16:15:18.037Z,101160.03
2022-09-22T16:17:45.827Z,101149.63
2022-09-22T16:20:14.731Z,101157.25
2022-09-22T16:22:41.842Z,101152.63
2022-09-22T16:25:11.188Z,101156.28
2022-09-22T16:27:38.576Z,101159.16
2022-09-22T16:30:06.011Z,101150.31
2022-09-22T16:32:36.165Z,101152.03
2022-09-22T16:35:03.761Z,101145.34
2022-09-22T16:37:30.385Z,101151.16
2022-09-22T16:39:57.172Z,101143.63
2022-09-22T16:42:24.171Z,101142.03
2022-09-22T16:44:50.858Z,101144.81
2022-09-22T16:47:22.889Z,101143.38
2022-09-22T16:49:51.829Z,101141.66
2022-09-22T16:52:19.947Z,101151.81
2022-09-22T16:54:46.675Z,101141.69
2022-09-22T16:57:13.263Z,101155.00
2022-09-22T16:59:39.789Z,101151.97
2022-09-22T17:02:06.362Z,101147.84
2022-09-22T17:04:33.111Z,101145.06
2022-09-22T17:06:59.763Z,101147.72
2022-09-22T17:09:26.931Z,101149.88
2022-09-22T17:11:53.561Z,101146.59
2022-09-22T17:14:21.454Z,101145.91
2022-09-22T17:16:51.751Z,101144.97
2022-09-22T17:19:21.089Z,101139.78
2022-09-22T17:21:50.883Z,101139.00
2022-09-22T17:24:19.175Z,101136.91
2022-09-22T17:26:48.341Z,101144.25
2022-09-22T17:29:23.531Z,101139.66
2022-09-22T17:31:56.370Z,101154.94
2022-09-22T17:34:24.618Z,101141.41
2022-09-22T17:36:52.432Z,101144.53
2022-09-22T17:39:19.060Z,101149.91
2022-09-22T17:41:46.617Z,101145.25
2022-09-22T17:44:16.926Z,101146.53
2022-09-22T17:47:02.058Z,101144.66
2022-09-22T17:49:47.424Z,101150.00
2022-09-22T17:52:34.558Z,101154.13
2022-09-22T17:55:12.580Z,101153.94
2022-09-22T17:57:43.986Z,101146.50
2022-09-22T18:00:13.045Z,101147.13
2022-09-22T18:02:39.899Z,101150.97
2022-09-22T18:05:09.872Z,101154.38
2022-09-22T18:07:38.169Z,101149.13
2022-09-22T18:10:06.868Z,101152.38
2022-09-22T18:12:34.152Z,101148.75
2022-09-22T18:15:04.147Z,101154.47
2022-09-22T18:17:34.280Z,101147.25
2022-09-22T18:20:01.025Z,101144.72
2022-09-22T18:22:29.297Z,101140.75
2022-09-22T18:24:56.147Z,101147.81
2022-09-22T18:27:26.849Z,101147.22
2022-09-22T18:29:58.168Z,101150.84
2022-09-22T18:32:26.796Z,101146.59
2022-09-22T18:34:55.159Z,101159.44
2022-09-22T18:37:23.460Z,101152.81
2022-09-22T18:39:50.478Z,101153.44
2022-09-22T18:42:24.045Z,101152.16
2022-09-22T18:44:51.608Z,101151.34
2022-09-22T18:47:20.327Z,101149.66
2022-09-22T18:49:51.229Z,101146.22
2022-09-22T18:52:23.702Z,101152.03
2022-09-22T18:54:53.150Z,101153.94
2022-09-22T18:57:22.307Z,101144.31
2022-09-22T18:59:50.729Z,101145.84
2022-09-22T19:02:22.345Z,101142.25
2022-09-22T19:04:49.986Z,101148.44
2022-09-22T19:07:40.353Z,101143.72
2022-09-22T19:10:10.537Z,101138.84
2022-09-22T19:12:39.310Z,101144.16
2022-09-22T19:15:16.262Z,101138.19
2022-09-22T19:17:44.573Z,101141.63
2022-09-22T19:20:23.618Z,101138.22
2022-09-22T19:22:52.963Z,101143.56
2022-09-22T19:25:21.403Z,101139.72
2022-09-22T19:27:48.481Z,101145.50
2022-09-22T19:30:16.329Z,101130.59
2022-09-22T19:32:46.621Z,101143.81
2022-09-22T19:35:13.926Z,101137.66
2022-09-22T19:37:41.345Z,101141.28
2022-09-22T19:40:09.671Z,101135.31
2022-09-22T19:42:39.999Z,101133.19
2022-09-22T19:45:08.311Z,101138.75
2022-09-22T19:47:35.135Z,101126.78
2022-09-22T19:50:01.760Z,101129.78
2022-09-22T19:52:28.395Z,101135.31
2022-09-22T19:54:54.938Z,101128.06
2022-09-22T19:57:21.579Z,101131.03
2022-09-22T19:59:48.110Z,101129.34
2022-09-22T20:02:15.249Z,101130.19
2022-09-22T20:04:43.003Z,101124.66
2022-09-22T20:07:11.199Z,101121.25
2022-09-22T20:09:38.529Z,101122.09
2022-09-22T20:12:05.964Z,101119.09
2022-09-22T20:14:32.855Z,101124.47
2022-09-22T20:17:05.879Z,101115.28
2022-09-22T20:19:34.855Z,101125.31
2022-09-22T20:22:27.923Z,101112.72
2022-09-22T20:25:00.390Z,101118.06
2022-09-22T20:27:32.362Z,101114.66
2022-09-22T20:30:00.052Z,101119.34
2022-09-22T20:32:29.265Z,101120.41
2022-09-22T20:34:55.952Z,101116.75
2022-09-22T20:37:24.376Z,101114.81
2022-09-22T20:39:51.605Z,101110.31
2022-09-22T20:42:18.306Z,101102.66
2022-09-22T20:44:45.321Z,101113.53
2022-09-22T20:47:15.571Z,101100.53
2022-09-22T20:49:42.914Z,101108.19
2022-09-22T20:52:16.828Z,101099.69
2022-09-22T20:54:44.142Z,101109.25
2022-09-22T20:57:11.197Z,101099.84
2022-09-22T20:59:38.023Z,101102.88
2022-09-22T21:02:04.921Z,101098.16
2022-09-22T21:04:31.778Z,101098.59
2022-09-22T21:06:58.805Z,101103.06
2022-09-22T21:09:44.308Z,101100.09
2022-09-22T21:12:13.359Z,101089.66
2022-09-22T21:14:45.839Z,101103.06
2022-09-22T21:17:13.329Z,101098.19
2022-09-22T21:19:40.055Z,101094.75
2022-09-22T21:22:06.896Z,101102.03
2022-09-22T21:24:34.005Z,101094.75
2022-09-22T21:27:00.600Z,101100.97
2022-09-22T21:29:28.238Z,101092.25
2022-09-22T21:31:55.753Z,101104.41
2022-09-22T21:34:22.368Z,101098.44
2022-09-22T21:36:49.061Z,101095.22
2022-09-22T21:39:15.955Z,101098.84
2022-09-22T21:41:42.792Z,101096.75
2022-09-22T21:44:09.428Z,101090.97
2022-09-22T21:46:40.852Z,101092.66
2022-09-22T21:49:08.899Z,101084.16
2022-09-22T21:51:44.160Z,101085.84
2022-09-22T21:54:18.535Z,101075.81
2022-09-22T21:56:46.089Z,101076.25
2022-09-22T21:59:13.676Z,101075.66
2022-09-22T22:01:42.118Z,101065.84
2022-09-22T22:04:09.943Z,101065.41
2022-09-22T22:06:42.762Z,101065.84
2022-09-22T22:09:12.494Z,101053.66
2022-09-22T22:11:49.367Z,101058.13
2022-09-22T22:14:19.324Z,101057.50
2022-09-22T22:16:48.680Z,101053.44
2022-09-22T22:19:19.720Z,101056.44
2022-09-22T22:21:48.656Z,101051.50
2022-09-22T22:24:31.896Z,101050.47
2022-09-22T22:27:07.730Z,101048.13
2022-09-22T22:29:34.764Z,101049.59
2022-09-22T22:32:02.392Z,101043.44
2022-09-22T22:34:28.968Z,101038.31
2022-09-22T22:36:56.201Z,101033.84
2022-09-22T22:39:22.866Z,101045.78
2022-09-22T22:41:49.587Z,101039.59
2022-09-22T22:44:17.825Z,101030.00
2022-09-22T22:46:45.265Z,101033.63
2022-09-22T22:49:11.917Z,101026.81
2022-09-22T22:51:43.022Z,101024.69
2022-09-22T22:54:11.123Z,101028.91
2022-09-22T22:56:41.967Z,101030.38
2022-09-22T22:59:10.230Z,101025.25
2022-09-22T23:01:37.460Z,101020.53
2022-09-22T23:04:07.137Z,101025.28
2022-09-22T23:06:39.644Z,101024.81
2022-09-22T23:09:09.954Z,101022.03
2022-09-22T23:11:39.670Z,101024.78
2022-09-22T23:14:08.407Z,101020.09
2022-09-22T23:16:43.574Z,101018.81
2022-09-22T23:19:16.683Z,101020.94
2022-09-22T23:21:44.857Z,101012.19
2022-09-22T23:24:15.960Z,101016.66
2022-09-22T23:26:43.708Z,101020.75
2022-09-22T23:29:10.662Z,101007.31
2022-09-22T23:31:37.307Z,101001.13
2022-09-22T23:34:03.821Z,100994.50
2022-09-22T23:36:30.489Z,100999.03
2022-09-22T23:39:03.303Z,100987.09
2022-09-22T23:41:31.577Z,100993.28
2022-09-22T23:43:58.093Z,100990.94
2022-09-22T23:46:24.935Z,100987.94
2022-09-22T23:48:51.554Z,100986.84
2022-09-22T23:51:19.442Z,100985.16
2022-09-22T23:53:46.175Z,100974.97
2022-09-22T23:56:13.934Z,100977.97
2022-09-22T23:58:40.467Z,100977.97
